createdAt,value
2022-11-05T00:02:22.276Z,6.20
2022-11-05T00:05:07.652Z,9.00
2022-11-05T00:08:00.541Z,9.13
2022-11-05T00:10:30.138Z,9.32
2022-11-05T00:13:18.680Z,8.10
2022-11-05T00:16:04.484Z,7.15
2022-11-05T00:18:31.011Z,9.20
2022-11-05T00:20:57.788Z,9.33
2022-11-05T00:23:42.684Z,9.95
2022-11-05T00:26:11.398Z,11.77
2022-11-05T00:28:38.875Z,12.52
2022-11-05T00:31:09.653Z,11.02
2022-11-05T00:33:37.129Z,10.97
2022-11-05T00:36:04.565Z,11.07
2022-11-05T00:38:30.933Z,11.02
2022-11-05T00:40:57.353Z,9.77
2022-11-05T00:43:42.264Z,11.05
2022-11-05T00:46:09.146Z,10.23
2022-11-05T00:48:53.901Z,10.68
2022-11-05T00:51:20.531Z,12.20
2022-11-05T00:53:46.826Z,9.88
2022-11-05T00:56:13.400Z,9.77
2022-11-05T00:58:39.781Z,12.67
2022-11-05T01:01:06.359Z,10.55
2022-11-05T01:03:36.133Z,9.85
2022-11-05T01:06:14.518Z,11.27
2022-11-05T01:08:45.315Z,10.63
2022-11-05T01:11:33.002Z,11.10
2022-11-05T01:14:11.633Z,10.80
2022-11-05T01:16:39.438Z,10.40
2022-11-05T01:19:08.012Z,13.35
2022-11-05T01:21:34.452Z,13.65
2022-11-05T01:24:01.747Z,11.83
2022-11-05T01:26:28.480Z,10.95
2022-11-05T01:28:57.591Z,11.07
2022-11-05T01:31:24.661Z,14.13
2022-11-05T01:33:51.050Z,12.73
2022-11-05T01:36:17.768Z,12.77
2022-11-05T01:38:44.358Z,12.23
2022-11-05T01:41:11.130Z,13.88
2022-11-05T01:43:48.524Z,15.35
2022-11-05T01:46:17.744Z,15.52
2022-11-05T01:48:44.171Z,16.70
2022-11-05T01:51:15.003Z,13.05
2022-11-05T01:53:55.802Z,13.40
2022-11-05T01:56:37.557Z,14.40
2022-11-05T01:59:11.620Z,15.55
2022-11-05T02:01:38.122Z,15.23
2022-11-05T02:04:09.840Z,15.38
2022-11-05T02:06:46.209Z,15.55
2022-11-05T02:09:20.536Z,15.15
2022-11-05T02:11:47.386Z,16.95
2022-11-05T02:14:13.677Z,15.73
2022-11-05T02:16:49.079Z,15.13
2022-11-05T02:19:24.382Z,17.20
2022-11-05T02:22:09.418Z,14.48
2022-11-05T02:25:06.757Z,14.73
2022-11-05T02:28:10.688Z,14.47
2022-11-05T02:31:04.614Z,17.48
2022-11-05T02:33:44.075Z,15.48
2022-11-05T02:36:25.801Z,18.63
2022-11-05T02:39:11.694Z,19.70
2022-11-05T02:42:05.743Z,17.87
2022-11-05T02:44:53.074Z,14.40
2022-11-05T02:47:44.049Z,17.45
2022-11-05T02:50:44.502Z,16.50
2022-11-05T02:53:13.856Z,16.55
2022-11-05T02:55:46.853Z,15.73
2022-11-05T02:58:13.366Z,15.35
2022-11-05T03:00:53.049Z,19.90
2022-11-05T03:03:53.414Z,15.73
2022-11-05T03:07:01.854Z,16.70
2022-11-05T03:09:35.813Z,16.77
2022-11-05T03:12:23.925Z,16.40
2022-11-05T03:15:03.376Z,18.85
2022-11-05T03:17:50.042Z,19.25
2022-11-05T03:20:23.490Z,16.65
2022-11-05T03:22:55.201Z,16.37
2022-11-05T03:25:24.067Z,17.45
2022-11-05T03:27:57.391Z,17.65
2022-11-05T03:30:25.147Z,17.70
2022-11-05T03:32:59.137Z,16.85
2022-11-05T03:35:33.856Z,17.83
2022-11-05T03:38:04.130Z,17.38
2022-11-05T03:40:35.174Z,16.63
2022-11-05T03:43:05.425Z,15.77
2022-11-05T03:45:38.219Z,18.13
2022-11-05T03:48:06.124Z,17.53
2022-11-05T03:50:45.081Z,18.63
2022-11-05T03:53:18.328Z,16.65
2022-11-05T03:56:04.124Z,17.08
2022-11-05T03:58:31.353Z,17.73
2022-11-05T04:01:02.071Z,17.43
2022-11-05T04:03:35.935Z,18.95
2022-11-05T04:06:26.197Z,19.10
2022-11-05T04:09:11.012Z,17.48
2022-11-05T04:11:55.770Z,17.00
2022-11-05T04:14:22.070Z,19.33
2022-11-05T04:17:06.332Z,17.73
2022-11-05T04:20:01.868Z,18.20
2022-11-05T04:22:49.745Z,17.08
2022-11-05T04:25:17.271Z,18.95
2022-11-05T04:27:44.434Z,18.70
2022-11-05T04:30:21.425Z,18.75
2022-11-05T04:33:01.595Z,18.30
2022-11-05T04:35:30.715Z,20.38
2022-11-05T04:37:57.088Z,18.63
2022-11-05T04:40:23.929Z,17.27
2022-11-05T04:42:50.237Z,20.02
2022-11-05T04:45:16.561Z,17.95
2022-11-05T04:47:42.955Z,18.20
2022-11-05T04:50:10.540Z,20.10
2022-11-05T04:52:36.861Z,18.00
2022-11-05T04:55:03.644Z,18.50
2022-11-05T04:57:29.926Z,17.30
2022-11-05T04:59:56.340Z,18.70
2022-11-05T05:02:22.745Z,21.02
2022-11-05T05:04:49.140Z,20.70
2022-11-05T05:07:15.532Z,19.13
2022-11-05T05:09:41.889Z,17.75
2022-11-05T05:12:08.172Z,21.50
2022-11-05T05:14:34.884Z,19.45
2022-11-05T05:17:01.238Z,20.33
2022-11-05T05:19:27.610Z,20.50
2022-11-05T05:21:53.906Z,21.73
2022-11-05T05:24:21.221Z,20.92
2022-11-05T05:26:49.559Z,18.45
2022-11-05T05:29:17.518Z,21.00
2022-11-05T05:31:44.137Z,21.50
2022-11-05T05:34:11.872Z,19.85
2022-11-05T05:36:38.195Z,23.45
2022-11-05T05:39:10.629Z,23.67
2022-11-05T05:41:36.922Z,23.60
2022-11-05T05:44:04.974Z,20.85
2022-11-05T05:46:31.355Z,24.15
2022-11-05T05:48:57.717Z,22.77
2022-11-05T05:51:24.053Z,24.33
2022-11-05T05:53:50.353Z,23.17
2022-11-05T05:56:19.286Z,21.90
2022-11-05T05:58:46.294Z,20.55
2022-11-05T06:01:18.987Z,21.75
2022-11-05T06:03:49.136Z,20.60
2022-11-05T06:06:19.551Z,22.27
2022-11-05T06:08:46.190Z,22.85
2022-11-05T06:11:12.566Z,23.42
2022-11-05T06:13:38.901Z,20.58
2022-11-05T06:16:07.798Z,21.35
2022-11-05T06:18:34.705Z,21.80
2022-11-05T06:21:09.810Z,22.90
2022-11-05T06:23:37.714Z,25.27
2022-11-05T06:26:06.099Z,21.58
2022-11-05T06:28:33.503Z,21.00
2022-11-05T06:31:00.316Z,21.13
2022-11-05T06:33:26.891Z,26.30
2022-11-05T06:35:54.266Z,27.58
2022-11-05T06:38:20.749Z,25.08
2022-11-05T06:40:47.085Z,26.80
2022-11-05T06:43:13.721Z,31.83
2022-11-05T06:45:40.383Z,27.02
2022-11-05T06:48:06.808Z,25.17
2022-11-05T06:50:33.088Z,33.30
2022-11-05T06:53:01.696Z,31.52
2022-11-05T06:55:29.945Z,25.80
2022-11-05T06:57:57.153Z,28.95
2022-11-05T07:00:24.201Z,24.33
2022-11-05T07:02:50.571Z,25.23
2022-11-05T07:05:17.320Z,26.02
2022-11-05T07:07:45.549Z,24.97
2022-11-05T07:10:17.193Z,23.20
2022-11-05T07:12:43.766Z,24.83
2022-11-05T07:15:12.089Z,23.80
2022-11-05T07:17:39.420Z,22.02
2022-11-05T07:20:07.538Z,23.53
2022-11-05T07:22:35.013Z,22.70
2022-11-05T07:25:01.418Z,18.92
2022-11-05T07:27:27.825Z,21.85
2022-11-05T07:29:54.117Z,26.42
2022-11-05T07:32:20.414Z,21.90
2022-11-05T07:34:46.817Z,22.10
2022-11-05T07:37:13.258Z,21.00
2022-11-05T07:39:39.537Z,20.65
2022-11-05T07:42:05.961Z,19.25
2022-11-05T07:44:32.303Z,21.67
2022-11-05T07:46:58.583Z,22.95
2022-11-05T07:49:24.946Z,23.83
2022-11-05T07:51:51.252Z,24.52
2022-11-05T07:54:17.595Z,26.15
2022-11-05T07:56:46.831Z,27.20
2022-11-05T07:59:13.233Z,24.30
2022-11-05T08:01:39.673Z,28.25
2022-11-05T08:04:06.092Z,28.63
2022-11-05T08:06:32.410Z,30.55
2022-11-05T08:08:58.701Z,33.73
2022-11-05T08:11:25.002Z,38.70
2022-11-05T08:13:51.293Z,37.53
2022-11-05T08:16:17.715Z,37.38
2022-11-05T08:18:44.601Z,31.95
2022-11-05T08:21:10.915Z,30.07
2022-11-05T08:23:38.857Z,25.77
2022-11-05T08:26:05.317Z,18.45
2022-11-05T08:28:31.840Z,24.13
2022-11-05T08:30:58.361Z,24.23
2022-11-05T08:33:25.794Z,19.20
2022-11-05T08:35:52.113Z,18.75
2022-11-05T08:38:19.941Z,19.45
2022-11-05T08:40:54.324Z,25.58
2022-11-05T08:43:21.077Z,25.05
2022-11-05T08:45:47.600Z,26.20
2022-11-05T08:48:16.583Z,25.60
2022-11-05T08:50:44.018Z,25.85
2022-11-05T08:53:10.965Z,27.65
2022-11-05T08:55:38.447Z,27.83
2022-11-05T08:58:07.528Z,30.10
2022-11-05T09:00:36.661Z,33.75
2022-11-05T09:03:05.357Z,33.60
2022-11-05T09:05:37.694Z,26.55
2022-11-05T09:08:08.810Z,22.15
2022-11-05T09:10:36.041Z,25.37
2022-11-05T09:13:02.809Z,22.50
2022-11-05T09:15:29.458Z,20.55
2022-11-05T09:17:56.059Z,17.40
2022-11-05T09:20:22.721Z,17.73
2022-11-05T09:22:49.148Z,19.13
2022-11-05T09:25:15.875Z,16.40
2022-11-05T09:27:42.811Z,16.20
2022-11-05T09:30:11.188Z,18.00
2022-11-05T09:32:37.507Z,17.38
2022-11-05T09:35:05.101Z,22.13
2022-11-05T09:37:31.394Z,22.67
2022-11-05T09:39:57.688Z,21.88
2022-11-05T09:42:29.740Z,21.88
2022-11-05T09:45:01.009Z,17.30
2022-11-05T09:47:42.649Z,21.77
2022-11-05T09:50:14.920Z,18.42
2022-11-05T09:52:41.509Z,18.67
2022-11-05T09:55:28.118Z,25.50
2022-11-05T09:58:00.473Z,32.15
2022-11-05T10:00:27.354Z,35.03
2022-11-05T10:02:55.601Z,28.63
2022-11-05T10:05:24.556Z,18.45
2022-11-05T10:07:57.221Z,18.67
2022-11-05T10:10:29.386Z,22.95
2022-11-05T10:13:04.590Z,27.57
2022-11-05T10:15:34.489Z,24.58
2022-11-05T10:18:14.677Z,27.00
2022-11-05T10:20:42.651Z,18.92
2022-11-05T10:23:19.364Z,14.85
2022-11-05T10:25:56.764Z,13.47
2022-11-05T10:28:25.966Z,13.68
2022-11-05T10:30:57.494Z,10.43
2022-11-05T10:33:43.033Z,11.18
2022-11-05T10:36:18.537Z,10.07
2022-11-05T10:38:45.348Z,10.03
2022-11-05T10:41:29.996Z,9.75
2022-11-05T10:44:17.611Z,9.73
2022-11-05T10:47:06.789Z,8.73
2022-11-05T10:49:42.148Z,8.23
2022-11-05T10:52:29.070Z,7.93
2022-11-05T10:54:59.336Z,7.45
2022-11-05T10:57:35.952Z,7.72
2022-11-05T11:00:23.863Z,7.32
2022-11-05T11:02:55.979Z,7.63
2022-11-05T11:05:35.995Z,8.83
2022-11-05T11:08:11.316Z,6.40
2022-11-05T11:10:51.004Z,9.48
2022-11-05T11:13:23.923Z,8.55
2022-11-05T11:15:51.125Z,7.38
2022-11-05T11:18:46.301Z,10.23
2022-11-05T11:21:15.481Z,7.72
2022-11-05T11:23:43.342Z,7.88
2022-11-05T11:26:11.622Z,7.55
2022-11-05T11:28:43.821Z,6.13
2022-11-05T11:31:22.193Z,5.60
2022-11-05T11:33:58.302Z,5.65
2022-11-05T11:36:31.221Z,6.70
2022-11-05T11:39:04.268Z,6.43
2022-11-05T11:41:41.924Z,8.05
2022-11-05T11:44:19.845Z,5.33
2022-11-05T11:46:50.818Z,5.82
2022-11-05T11:49:42.662Z,8.68
2022-11-05T11:52:13.031Z,7.53
2022-11-05T11:54:39.336Z,7.47
2022-11-05T11:57:26.990Z,6.30
2022-11-05T12:00:08.342Z,7.32
2022-11-05T12:03:05.046Z,7.78
2022-11-05T12:05:38.978Z,6.20
2022-11-05T12:08:18.938Z,5.50
2022-11-05T12:10:54.058Z,4.90
2022-11-05T12:13:22.996Z,5.72
2022-11-05T12:16:14.030Z,6.45
2022-11-05T12:19:09.020Z,5.68
2022-11-05T12:21:55.812Z,4.70
2022-11-05T12:24:40.558Z,4.47
2022-11-05T12:27:37.174Z,6.53
2022-11-05T12:30:11.641Z,5.00
2022-11-05T12:32:40.886Z,4.97
2022-11-05T12:35:44.107Z,5.85
2022-11-05T12:38:52.400Z,6.77
2022-11-05T12:41:39.793Z,12.45
2022-11-05T12:44:09.051Z,9.07
2022-11-05T12:46:48.849Z,7.80
2022-11-05T12:49:33.192Z,6.93
2022-11-05T12:51:59.666Z,5.70
2022-11-05T12:54:34.667Z,10.15
2022-11-05T12:57:03.614Z,11.23
2022-11-05T12:59:40.873Z,7.45
2022-11-05T13:02:19.023Z,7.15
2022-11-05T13:04:58.957Z,6.60
2022-11-05T13:07:31.520Z,5.50
2022-11-05T13:10:20.999Z,5.90
2022-11-05T13:13:02.685Z,4.78
2022-11-05T13:15:33.688Z,5.97
2022-11-05T13:18:05.378Z,5.10
2022-11-05T13:20:37.691Z,3.70
2022-11-05T13:23:16.154Z,3.90
2022-11-05T13:25:50.508Z,4.25
2022-11-05T13:28:32.688Z,6.20
2022-11-05T13:31:02.837Z,5.57
2022-11-05T13:33:36.271Z,5.40
2022-11-05T13:36:47.120Z,8.60
2022-11-05T13:39:21.478Z,9.52
2022-11-05T13:42:25.052Z,6.47
2022-11-05T13:45:25.753Z,5.77
2022-11-05T13:48:25.539Z,6.00
2022-11-05T13:50:54.850Z,6.07
2022-11-05T13:53:39.555Z,6.07
2022-11-05T13:56:24.677Z,6.65
2022-11-05T13:59:15.897Z,5.73
2022-11-05T14:01:48.350Z,6.53
2022-11-05T14:04:47.539Z,4.93
2022-11-05T14:07:24.946Z,5.93
2022-11-05T14:10:01.426Z,5.20
2022-11-05T14:12:38.031Z,6.37
2022-11-05T14:15:31.624Z,5.40
2022-11-05T14:18:07.309Z,5.55
2022-11-05T14:20:33.544Z,6.03
2022-11-05T14:23:18.860Z,7.93
2022-11-05T14:25:45.132Z,6.00
2022-11-05T14:28:38.202Z,5.38
2022-11-05T14:31:47.204Z,4.32
2022-11-05T14:34:15.705Z,4.82
2022-11-05T14:37:03.269Z,4.30
2022-11-05T14:39:32.181Z,4.87
2022-11-05T14:42:10.336Z,4.32
2022-11-05T14:44:54.120Z,5.32
2022-11-05T14:47:22.879Z,4.40
2022-11-05T14:49:53.792Z,4.30
2022-11-05T14:52:20.681Z,8.10
2022-11-05T14:54:50.612Z,6.43
2022-11-05T14:57:42.560Z,5.53
2022-11-05T15:00:40.627Z,4.55
2022-11-05T15:03:45.961Z,7.80
2022-11-05T15:06:29.796Z,5.07
2022-11-05T15:09:11.557Z,5.65
2022-11-05T15:11:40.591Z,3.83
2022-11-05T15:14:40.321Z,4.20
2022-11-05T15:17:22.351Z,4.10
2022-11-05T15:19:50.991Z,4.10
2022-11-05T15:22:30.460Z,5.25
2022-11-05T15:24:56.866Z,5.53
2022-11-05T15:27:40.379Z,5.25
2022-11-05T15:30:20.489Z,4.75
2022-11-05T15:32:47.027Z,4.43
2022-11-05T15:35:20.409Z,4.53
2022-11-05T15:37:53.343Z,4.63
2022-11-05T15:40:26.444Z,5.13
2022-11-05T15:43:10.807Z,5.68
2022-11-05T15:45:37.331Z,5.30
2022-11-05T15:48:13.495Z,6.07
2022-11-05T15:50:40.480Z,7.13
2022-11-05T15:53:44.173Z,7.28
2022-11-05T15:56:09.988Z,5.80
2022-11-05T15:58:48.863Z,8.83
2022-11-05T16:01:21.431Z,12.60
2022-11-05T16:03:48.255Z,9.90
2022-11-05T16:06:14.594Z,9.35
2022-11-05T16:08:47.198Z,8.27
2022-11-05T16:11:22.299Z,8.47
2022-11-05T16:13:48.757Z,12.07
2022-11-05T16:16:15.028Z,13.95
2022-11-05T16:18:42.528Z,11.95
2022-11-05T16:21:10.287Z,10.55
2022-11-05T16:23:48.793Z,10.93
2022-11-05T16:26:55.927Z,10.27
2022-11-05T16:29:22.517Z,11.00
2022-11-05T16:31:51.305Z,7.70
2022-11-05T16:34:28.358Z,7.85
2022-11-05T16:36:56.787Z,6.70
2022-11-05T16:39:23.688Z,10.00
2022-11-05T16:41:49.998Z,9.70
2022-11-05T16:44:16.388Z,9.57
2022-11-05T16:46:47.539Z,10.45
2022-11-05T16:49:14.613Z,10.97
2022-11-05T16:51:41.533Z,12.70
2022-11-05T16:54:08.018Z,25.50
2022-11-05T16:56:34.829Z,27.13
2022-11-05T16:59:02.641Z,11.82
2022-11-05T17:01:29.233Z,8.37
2022-11-05T17:03:55.572Z,4.95
2022-11-05T17:06:22.175Z,7.68
2022-11-05T17:08:48.822Z,9.13
2022-11-05T17:11:17.311Z,10.20
2022-11-05T17:13:44.354Z,11.37
2022-11-05T17:16:17.178Z,12.98
2022-11-05T17:18:44.074Z,9.50
2022-11-05T17:21:12.493Z,9.93
2022-11-05T17:23:38.797Z,9.70
2022-11-05T17:26:09.068Z,9.40
2022-11-05T17:28:37.585Z,9.45
2022-11-05T17:31:06.725Z,11.70
2022-11-05T17:33:33.568Z,13.82
2022-11-05T17:36:00.255Z,11.77
2022-11-05T17:38:26.910Z,13.53
2022-11-05T17:40:53.765Z,16.77
2022-11-05T17:43:20.798Z,14.80
2022-11-05T17:45:50.032Z,18.45
2022-11-05T17:48:16.846Z,18.02
2022-11-05T17:50:45.365Z,20.37
2022-11-05T17:53:13.495Z,22.23
2022-11-05T17:55:41.889Z,18.20
2022-11-05T17:58:08.444Z,15.05
2022-11-05T18:00:35.473Z,21.05
2022-11-05T18:03:02.051Z,17.80
2022-11-05T18:05:30.308Z,21.27
2022-11-05T18:07:57.447Z,26.08
2022-11-05T18:10:24.412Z,25.45
2022-11-05T18:12:51.405Z,17.67
2022-11-05T18:15:18.204Z,15.53
2022-11-05T18:17:45.648Z,14.48
2022-11-05T18:20:19.375Z,14.65
2022-11-05T18:22:47.942Z,13.88
2022-11-05T18:25:14.363Z,17.15
2022-11-05T18:27:41.147Z,16.80
2022-11-05T18:30:08.774Z,21.48
2022-11-05T18:32:35.779Z,17.63
2022-11-05T18:35:02.097Z,19.30
2022-11-05T18:37:28.421Z,19.20
2022-11-05T18:39:54.738Z,30.33
2022-11-05T18:42:21.341Z,23.63
2022-11-05T18:44:48.505Z,20.83
2022-11-05T18:47:14.864Z,20.00
2022-11-05T18:49:41.145Z,29.30
2022-11-05T18:52:07.472Z,21.23
2022-11-05T18:54:34.027Z,30.88
2022-11-05T18:57:00.391Z,23.13
2022-11-05T18:59:37.617Z,20.00
2022-11-05T19:02:05.960Z,23.67
2022-11-05T19:04:32.746Z,23.63
2022-11-05T19:07:04.443Z,18.52
2022-11-05T19:13:18.638Z,16.42
2022-11-05T19:15:44.992Z,17.40
2022-11-05T19:18:11.559Z,17.80
2022-11-05T19:20:38.875Z,15.25
2022-11-05T19:23:05.296Z,16.50
2022-11-05T19:25:31.860Z,13.40
2022-11-05T19:27:58.526Z,15.82
2022-11-05T19:30:25.902Z,19.30
2022-11-05T19:32:52.206Z,25.25
2022-11-05T19:35:18.549Z,22.40
2022-11-05T19:37:45.101Z,19.52
2022-11-05T19:40:11.838Z,16.75
2022-11-05T19:42:38.382Z,14.70
2022-11-05T19:45:30.285Z,16.35
2022-11-05T19:47:51.472Z,17.92
2022-11-05T19:50:17.904Z,17.17
2022-11-05T19:52:44.207Z,18.00
2022-11-05T19:55:12.229Z,14.67
2022-11-05T19:57:38.795Z,16.95
2022-11-05T20:00:05.768Z,24.63
2022-11-05T20:02:32.132Z,25.63
2022-11-05T20:04:58.523Z,23.25
2022-11-05T20:07:24.841Z,20.63
2022-11-05T20:09:51.151Z,43.78
2022-11-05T20:12:17.802Z,34.08
2022-11-05T20:14:44.817Z,17.30
2022-11-05T20:17:11.137Z,16.67
2022-11-05T20:19:37.417Z,24.43
2022-11-05T20:22:03.702Z,21.50
2022-11-05T20:24:30.033Z,16.83
2022-11-05T20:26:57.014Z,17.90
2022-11-05T20:29:29.111Z,17.42
2022-11-05T20:32:01.947Z,15.90
2022-11-05T20:34:30.278Z,14.20
2022-11-05T20:36:56.563Z,16.85
2022-11-05T20:39:22.941Z,15.65
2022-11-05T20:41:49.322Z,14.75
2022-11-05T20:44:15.615Z,16.93
2022-11-05T20:46:41.941Z,18.70
2022-11-05T20:49:08.316Z,15.57
2022-11-05T20:51:34.628Z,14.45
2022-11-05T20:54:01.256Z,15.57
2022-11-05T20:56:31.169Z,18.27
2022-11-05T20:58:59.303Z,14.60
2022-11-05T21:01:32.234Z,16.50
2022-11-05T21:03:59.682Z,15.18
2022-11-05T21:06:26.493Z,15.05
2022-11-05T21:08:53.040Z,12.47
2022-11-05T21:11:19.904Z,17.73
2022-11-05T21:13:46.771Z,15.57
2022-11-05T21:16:18.021Z,14.45
2022-11-05T21:18:45.942Z,14.55
2022-11-05T21:21:15.323Z,15.30
2022-11-05T21:23:41.912Z,16.23
2022-11-05T21:26:11.958Z,16.27
2022-11-05T21:28:39.876Z,17.98
2022-11-05T21:31:07.306Z,15.32
2022-11-05T21:33:33.995Z,13.93
2022-11-05T21:36:09.004Z,13.60
2022-11-05T21:38:35.537Z,13.18
2022-11-05T21:41:02.909Z,14.38
2022-11-05T21:43:29.397Z,13.98
2022-11-05T21:45:55.728Z,13.50
2022-11-05T21:48:22.003Z,12.90
2022-11-05T21:51:10.764Z,13.98
2022-11-05T21:53:55.393Z,20.95
2022-11-05T21:56:42.749Z,21.90
2022-11-05T21:59:31.024Z,20.53
2022-11-05T22:02:01.394Z,20.33
2022-11-05T22:04:29.831Z,22.45
2022-11-05T22:06:56.918Z,31.08
2022-11-05T22:09:24.102Z,26.42
2022-11-05T22:11:50.445Z,22.20
2022-11-05T22:14:16.764Z,19.65
2022-11-05T22:16:43.226Z,17.20
2022-11-05T22:19:09.542Z,17.23
2022-11-05T22:21:35.822Z,15.23
2022-11-05T22:24:02.161Z,16.40
2022-11-05T22:26:28.564Z,15.85
2022-11-05T22:28:55.769Z,18.90
2022-11-05T22:31:22.259Z,19.38
2022-11-05T22:33:49.099Z,23.63
2022-11-05T22:36:15.767Z,20.37
2022-11-05T22:38:42.231Z,17.45
2022-11-05T22:41:14.833Z,19.08
2022-11-05T22:43:41.637Z,16.20
2022-11-05T22:46:10.890Z,17.30
2022-11-05T22:48:38.843Z,18.00
2022-11-05T22:51:07.680Z,17.15
2022-11-05T22:53:35.670Z,16.98
2022-11-05T22:56:07.272Z,17.13
2022-11-05T22:58:33.677Z,19.75
2022-11-05T23:01:00.793Z,19.03
2022-11-05T23:03:28.827Z,20.85
2022-11-05T23:06:26.893Z,17.17
2022-11-05T23:09:11.670Z,16.20
2022-11-05T23:11:40.588Z,15.70
2022-11-05T23:14:09.379Z,15.63
2022-11-05T23:16:55.037Z,16.55
2022-11-05T23:19:40.797Z,14.18
2022-11-05T23:22:31.206Z,15.68
2022-11-05T23:24:57.540Z,15.80
2022-11-05T23:27:24.024Z,17.97
2022-11-05T23:30:12.853Z,18.67
2022-11-05T23:32:39.213Z,15.43
2022-11-05T23:35:06.347Z,17.35
2022-11-05T23:37:51.565Z,15.95
2022-11-05T23:40:21.056Z,14.97
2022-11-05T23:43:06.457Z,17.73
2022-11-05T23:45:52.357Z,16.08
2022-11-05T23:48:21.769Z,15.77
2022-11-05T23:50:56.152Z,15.73
2022-11-05T23:53:22.975Z,18.27
2022-11-05T23:55:49.917Z,17.80
2022-11-05T23:58:16.922Z,16.92
